Time;durP1;ratioP1;P1;durP2;ratioP2;P2;SDS_P1;SDS_P2;PMS_P1;PMS_P2;Temp;Humidity;BMP_temperature;BMP_pressure;BME280_temperature;BME280_humidity;BME280_pressure;Samples;Min_cycle;Max_cycle;Signal;HPM_P1;HPM_P2
2023/01/20 00:01:22;;;;;;;6.97;3.53;;;-0.40;99.90;;;;;;4976776;28;20484;-93
2023/01/20 00:03:49;;;;;;;8.97;4.53;;;-0.40;99.90;;;;;;4975862;28;20417;-93
2023/01/20 00:06:15;;;;;;;10.00;4.80;;;-0.40;99.90;;;;;;4976451;28;20468;-92
2023/01/20 00:08:40;;;;;;;6.00;3.93;;;-0.40;99.90;;;;;;4989164;28;20866;-91
2023/01/20 00:11:08;;;;;;;5.50;4.13;;;-0.40;99.90;;;;;;5020695;28;20186;-92
2023/01/20 00:16:11;;;;;;;13.40;5.90;;;-0.40;99.90;;;;;;4983944;28;20480;-88
2023/01/20 00:18:38;;;;;;;11.00;6.40;;;-0.40;99.90;;;;;;4975278;28;20924;-91
2023/01/20 00:21:08;;;;;;;10.80;5.33;;;-0.40;99.90;;;;;;4959870;28;20434;-93
2023/01/20 00:23:34;;;;;;;17.73;6.60;;;-0.40;99.90;;;;;;4974891;28;20427;-83
2023/01/20 00:26:07;;;;;;;10.50;5.83;;;-0.40;99.90;;;;;;4975392;28;20477;-88
2023/01/20 00:28:33;;;;;;;9.60;4.80;;;-0.40;99.90;;;;;;4976699;28;20192;-83
2023/01/20 00:31:13;;;;;;;13.60;6.40;;;-0.40;99.90;;;;;;4960703;28;20807;-82
2023/01/20 00:33:39;;;;;;;10.80;6.50;;;-0.40;99.90;;;;;;4979478;28;20410;-90
2023/01/20 00:36:05;;;;;;;11.60;5.93;;;-0.50;99.90;;;;;;4979734;28;20418;-83
2023/01/20 00:38:30;;;;;;;17.13;8.27;;;-0.40;99.90;;;;;;4962187;28;20657;-82
2023/01/20 00:40:56;;;;;;;16.47;8.90;;;-0.50;99.90;;;;;;4962440;28;20169;-90
2023/01/20 00:43:21;;;;;;;15.33;7.30;;;-0.40;99.90;;;;;;4980534;28;20168;-86
2023/01/20 00:45:47;;;;;;;19.07;9.40;;;-0.40;99.90;;;;;;4961847;28;20243;-91
2023/01/20 00:48:12;;;;;;;15.77;10.10;;;-0.40;99.90;;;;;;4962320;28;20184;-87
2023/01/20 00:50:38;;;;;;;17.47;9.10;;;-0.40;99.90;;;;;;4980603;28;20248;-81
2023/01/20 00:53:03;;;;;;;14.47;8.10;;;-0.40;99.90;;;;;;4979324;28;20200;-94
2023/01/20 00:55:29;;;;;;;14.03;8.53;;;-0.40;99.90;;;;;;4961873;28;20621;-86
2023/01/20 00:57:57;;;;;;;16.23;9.47;;;-0.40;99.90;;;;;;4979354;28;20272;-95
2023/01/20 01:00:22;;;;;;;14.17;10.27;;;-0.40;99.90;;;;;;4979334;28;20271;-94
2023/01/20 01:02:48;;;;;;;18.50;11.43;;;-0.40;99.90;;;;;;4977815;28;20444;-89
2023/01/20 01:05:16;;;;;;;15.67;8.93;;;-0.40;99.90;;;;;;4979241;28;20182;-93
2023/01/20 01:07:42;;;;;;;22.10;9.83;;;-0.40;99.90;;;;;;4980994;28;20180;-94
2023/01/20 01:10:08;;;;;;;17.20;9.00;;;-0.50;99.90;;;;;;4985946;28;20413;-87
2023/01/20 01:12:34;;;;;;;15.73;9.90;;;-0.40;99.90;;;;;;4978751;28;20180;-83
2023/01/20 01:14:59;;;;;;;20.30;11.17;;;-0.30;99.90;;;;;;4978783;28;20481;-84
2023/01/20 01:17:28;;;;;;;22.37;11.60;;;-0.30;99.90;;;;;;4980660;28;20239;-82
2023/01/20 01:19:53;;;;;;;19.97;12.87;;;-0.30;99.90;;;;;;4964451;28;20543;-83
2023/01/20 01:22:22;;;;;;;19.87;12.20;;;-0.30;99.90;;;;;;4967869;28;20432;-83
2023/01/20 01:24:50;;;;;;;19.10;11.13;;;-0.30;99.90;;;;;;4982704;28;20192;-83
2023/01/20 01:27:16;;;;;;;20.57;10.87;;;-0.20;99.90;;;;;;4970266;28;20939;-87
2023/01/20 01:29:41;;;;;;;17.07;11.80;;;-0.20;99.90;;;;;;4986258;28;20421;-82
2023/01/20 01:32:07;;;;;;;21.00;12.37;;;-0.10;99.90;;;;;;4987925;28;20184;-90
2023/01/20 01:34:33;;;;;;;23.00;13.50;;;-0.20;99.90;;;;;;4971937;28;20601;-87
2023/01/20 01:36:59;;;;;;;26.57;14.53;;;-0.20;99.90;;;;;;4985705;28;20425;-83
2023/01/20 01:39:24;;;;;;;26.20;15.27;;;-0.20;99.90;;;;;;4988359;28;20576;-87
2023/01/20 01:41:50;;;;;;;26.03;14.10;;;-0.20;99.90;;;;;;4990521;28;20204;-82
2023/01/20 01:44:15;;;;;;;29.10;16.57;;;-0.20;99.90;;;;;;4995310;23;20179;-82
2023/01/20 01:46:41;;;;;;;27.53;15.50;;;-0.20;99.90;;;;;;4969017;29;20749;-82
2023/01/20 01:49:14;;;;;;;20.37;13.10;;;-0.20;99.90;;;;;;4945032;29;20195;-83
2023/01/20 01:51:50;;;;;;;29.33;15.37;;;-0.30;99.90;;;;;;4959559;29;20973;-94
2023/01/20 01:54:19;;;;;;;20.97;11.57;;;-0.30;99.90;;;;;;4958264;29;20420;-82
2023/01/20 01:56:47;;;;;;;19.47;12.67;;;-0.40;99.90;;;;;;4959187;29;20412;-93
2023/01/20 01:59:15;;;;;;;24.77;13.50;;;-0.40;99.90;;;;;;4958892;28;20417;-85
2023/01/20 02:01:45;;;;;;;27.30;15.47;;;-0.40;99.90;;;;;;4958178;29;20413;-82
2023/01/20 02:04:13;;;;;;;22.93;13.43;;;-0.40;99.90;;;;;;4959817;29;20564;-85
2023/01/20 02:06:51;;;;;;;28.40;17.63;;;-0.50;99.90;;;;;;4958654;29;20482;-82
2023/01/20 02:09:17;;;;;;;24.27;14.63;;;-0.40;99.90;;;;;;4959113;29;20419;-87
2023/01/20 02:11:47;;;;;;;28.33;16.23;;;-0.40;99.90;;;;;;4965641;29;20405;-82
2023/01/20 02:14:16;;;;;;;30.40;15.77;;;-0.40;99.90;;;;;;4964334;29;20519;-82
2023/01/20 02:16:55;;;;;;;22.80;14.30;;;-0.30;99.90;;;;;;4958750;29;20501;-82
2023/01/20 02:20:01;;;;;;;28.13;14.23;;;-0.40;99.90;;;;;;4962311;29;20429;-85
2023/01/20 02:22:45;;;;;;;27.40;16.77;;;-0.30;99.90;;;;;;4961084;29;20432;-92
2023/01/20 02:25:26;;;;;;;23.97;16.80;;;-0.20;99.90;;;;;;4961301;29;20412;-83
2023/01/20 02:28:10;;;;;;;29.53;14.83;;;-0.20;99.90;;;;;;4960757;29;20443;-82
2023/01/20 02:30:41;;;;;;;24.77;15.43;;;-0.10;99.90;;;;;;4961046;29;20416;-82
2023/01/20 02:33:30;;;;;;;27.97;15.30;;;0.00;99.90;;;;;;4957943;29;20408;-86
2023/01/20 02:36:05;;;;;;;29.50;18.10;;;0.10;99.90;;;;;;4956997;29;20441;-89
2023/01/20 02:38:43;;;;;;;23.07;13.00;;;0.10;99.90;;;;;;4958082;29;20495;-83
2023/01/20 02:41:44;;;;;;;24.17;14.90;;;0.20;99.90;;;;;;4957221;29;20629;-88
2023/01/20 02:44:09;;;;;;;28.67;15.47;;;0.20;99.90;;;;;;4920324;29;20421;-83
2023/01/20 02:46:52;;;;;;;27.93;16.80;;;0.30;99.90;;;;;;4922209;29;20477;-84
2023/01/20 02:49:17;;;;;;;30.13;18.50;;;0.30;99.90;;;;;;4937259;29;20260;-83
2023/01/20 02:52:10;;;;;;;31.03;18.80;;;0.30;99.90;;;;;;4921075;29;20512;-83
2023/01/20 02:54:42;;;;;;;26.07;15.57;;;0.40;99.90;;;;;;4937423;29;20663;-83
2023/01/20 02:57:13;;;;;;;25.87;19.40;;;0.40;99.90;;;;;;4937873;29;20410;-95
2023/01/20 02:59:44;;;;;;;33.40;18.33;;;0.40;99.90;;;;;;4938085;29;20450;-94
2023/01/20 03:02:17;;;;;;;34.00;17.07;;;0.40;99.90;;;;;;4937222;29;20776;-95
2023/01/20 03:04:51;;;;;;;29.67;18.27;;;0.50;99.90;;;;;;4943832;29;20437;-83
2023/01/20 03:07:20;;;;;;;26.63;17.83;;;0.50;99.90;;;;;;4937969;29;20484;-95
2023/01/20 03:09:50;;;;;;;31.73;19.00;;;0.50;99.90;;;;;;4921250;29;20426;-87
2023/01/20 03:12:23;;;;;;;31.00;18.40;;;0.50;99.90;;;;;;4938966;29;20477;-83
2023/01/20 03:14:51;;;;;;;32.50;17.90;;;0.50;99.90;;;;;;4938062;29;20410;-93
2023/01/20 03:17:20;;;;;;;32.27;16.47;;;0.40;99.90;;;;;;4935888;29;20433;-83
2023/01/20 03:19:46;;;;;;;35.53;18.00;;;0.40;99.90;;;;;;4937296;29;20419;-82
2023/01/20 03:22:11;;;;;;;36.40;19.13;;;0.30;99.90;;;;;;4937215;29;20420;-83
2023/01/20 03:24:39;;;;;;;31.37;17.23;;;0.20;99.90;;;;;;4937220;29;20650;-92
2023/01/20 03:27:06;;;;;;;36.90;19.47;;;0.20;99.90;;;;;;4937018;29;20218;-83
2023/01/20 03:29:31;;;;;;;32.33;15.90;;;0.10;99.90;;;;;;4937288;29;20445;-86
2023/01/20 03:31:59;;;;;;;27.90;16.23;;;0.00;99.90;;;;;;4937607;29;21024;-83
2023/01/20 03:34:28;;;;;;;26.13;15.70;;;0.00;99.90;;;;;;4938758;29;20631;-83
2023/01/20 03:36:55;;;;;;;25.10;16.90;;;-0.10;99.90;;;;;;4937681;29;20428;-82
2023/01/20 03:39:22;;;;;;;24.67;14.87;;;-0.10;99.90;;;;;;4941987;29;20922;-83
2023/01/20 03:41:58;;;;;;;26.20;15.33;;;-0.10;99.90;;;;;;4938572;29;20993;-87
2023/01/20 03:44:50;;;;;;;26.73;16.73;;;-0.10;99.90;;;;;;4940229;29;20418;-91
2023/01/20 03:47:27;;;;;;;35.03;17.37;;;-0.10;99.90;;;;;;4957294;29;20475;-94
2023/01/20 03:50:08;;;;;;;31.40;16.50;;;-0.10;99.90;;;;;;4958781;29;20426;-95
2023/01/20 03:52:53;;;;;;;32.13;17.50;;;-0.20;99.90;;;;;;4956336;29;20771;-82
2023/01/20 03:55:34;;;;;;;30.00;16.10;;;-0.20;99.90;;;;;;4959635;29;20405;-95
2023/01/20 03:58:10;;;;;;;39.83;17.57;;;-0.20;99.90;;;;;;4956141;29;20534;-87
2023/01/20 04:00:41;;;;;;;26.07;16.10;;;-0.20;99.90;;;;;;4956637;29;20423;-92
2023/01/20 04:03:14;;;;;;;30.77;14.93;;;-0.30;99.90;;;;;;4957221;29;20421;-93
2023/01/20 04:05:40;;;;;;;33.93;18.03;;;-0.30;99.90;;;;;;4959207;28;20470;-94
2023/01/20 04:08:08;;;;;;;33.93;16.30;;;-0.20;99.90;;;;;;4962611;29;20428;-83
2023/01/20 04:10:37;;;;;;;28.17;15.87;;;-0.10;99.90;;;;;;4962187;29;20762;-83
2023/01/20 04:13:03;;;;;;;30.67;17.30;;;0.00;99.90;;;;;;4960526;29;20472;-83
2023/01/20 04:15:33;;;;;;;35.03;16.40;;;0.00;99.90;;;;;;4960463;29;20425;-93
2023/01/20 04:18:14;;;;;;;33.77;17.00;;;0.00;99.90;;;;;;4960124;29;20175;-85
2023/01/20 04:20:41;;;;;;;33.37;18.30;;;0.00;99.90;;;;;;4960812;29;20424;-83
2023/01/20 04:23:14;;;;;;;29.03;16.57;;;0.10;99.90;;;;;;4959100;29;20409;-92
2023/01/20 04:25:40;;;;;;;26.63;14.67;;;0.10;99.90;;;;;;4959659;29;20460;-93
2023/01/20 04:28:05;;;;;;;36.03;17.37;;;0.10;99.90;;;;;;4960883;29;20479;-89
2023/01/20 04:30:31;;;;;;;29.23;15.60;;;0.10;99.90;;;;;;4944869;29;20185;-95
2023/01/20 04:32:56;;;;;;;22.27;15.83;;;0.10;99.90;;;;;;4966340;29;20185;-84
2023/01/20 04:35:22;;;;;;;33.60;15.77;;;0.10;99.90;;;;;;4960125;29;20219;-94
2023/01/20 04:37:47;;;;;;;26.97;14.30;;;0.10;99.90;;;;;;4963680;29;20242;-94
2023/01/20 04:40:13;;;;;;;24.10;15.67;;;0.00;99.90;;;;;;4963949;29;20243;-83
2023/01/20 04:42:38;;;;;;;27.77;15.90;;;0.00;99.90;;;;;;4961326;29;20182;-87
2023/01/20 04:45:11;;;;;;;33.70;15.30;;;0.00;99.90;;;;;;4964785;29;20249;-83
2023/01/20 04:47:36;;;;;;;27.43;14.57;;;0.00;99.90;;;;;;4960586;29;20214;-83
2023/01/20 04:50:05;;;;;;;29.77;16.63;;;0.00;99.90;;;;;;4959506;29;20479;-83
2023/01/20 04:52:30;;;;;;;32.13;17.07;;;0.10;99.90;;;;;;4966001;29;20240;-93
2023/01/20 04:54:56;;;;;;;32.83;15.97;;;0.10;99.90;;;;;;4966488;29;20428;-90
2023/01/20 04:57:21;;;;;;;30.93;15.13;;;0.10;99.90;;;;;;4962385;29;20170;-91
2023/01/20 04:59:48;;;;;;;27.57;13.80;;;0.10;99.90;;;;;;4965376;29;20174;-93
2023/01/20 05:02:14;;;;;;;30.60;14.97;;;0.20;99.90;;;;;;4962537;29;20178;-89
2023/01/20 05:04:39;;;;;;;23.33;13.40;;;0.10;99.90;;;;;;4966933;29;20855;-93
2023/01/20 05:07:05;;;;;;;29.17;14.90;;;0.10;99.90;;;;;;4965546;29;20237;-95
2023/01/20 05:09:30;;;;;;;29.27;15.50;;;0.20;99.90;;;;;;4960345;29;20718;-94
2023/01/20 05:11:56;;;;;;;26.17;14.73;;;0.20;99.90;;;;;;4960163;29;20171;-82
2023/01/20 05:14:21;;;;;;;27.40;16.10;;;0.20;99.90;;;;;;4960633;29;20173;-85
2023/01/20 05:16:47;;;;;;;26.87;12.20;;;0.20;99.90;;;;;;4964739;28;20208;-95
2023/01/20 05:19:13;;;;;;;26.70;14.23;;;0.20;99.90;;;;;;4967960;29;20173;-92
2023/01/20 05:21:39;;;;;;;21.90;12.43;;;0.20;99.90;;;;;;4970469;29;20181;-82
2023/01/20 05:24:04;;;;;;;29.37;14.07;;;0.20;99.90;;;;;;5041861;23;20567;-92
2023/01/20 05:26:31;;;;;;;31.20;14.73;;;0.20;99.90;;;;;;4988526;28;20235;-90
2023/01/20 05:28:57;;;;;;;20.97;13.30;;;0.20;99.90;;;;;;4990909;28;20174;-85
2023/01/20 05:31:25;;;;;;;24.90;14.00;;;0.20;99.90;;;;;;4989151;28;20438;-93
2023/01/20 05:33:51;;;;;;;22.70;12.93;;;0.30;99.90;;;;;;4989152;28;20172;-93
2023/01/20 05:36:16;;;;;;;25.00;12.70;;;0.30;99.90;;;;;;4986860;28;20444;-95
2023/01/20 05:38:45;;;;;;;26.27;13.43;;;0.30;99.90;;;;;;4990023;28;20188;-86
2023/01/20 05:41:11;;;;;;;22.57;11.43;;;0.30;99.90;;;;;;4994487;28;20268;-82
2023/01/20 05:43:37;;;;;;;24.27;12.80;;;0.30;99.90;;;;;;4996409;28;20427;-83
2023/01/20 05:46:04;;;;;;;28.37;15.77;;;0.40;99.90;;;;;;4998695;28;20492;-83
2023/01/20 05:48:30;;;;;;;21.87;11.67;;;0.40;99.90;;;;;;4978878;28;20423;-83
2023/01/20 05:50:55;;;;;;;29.97;13.47;;;0.50;99.90;;;;;;4993729;28;20453;-90
2023/01/20 05:53:21;;;;;;;23.50;13.30;;;0.40;99.90;;;;;;4991134;28;20264;-86
2023/01/20 05:55:47;;;;;;;26.87;13.30;;;0.40;99.90;;;;;;4991980;28;20271;-85
2023/01/20 05:58:13;;;;;;;24.43;14.27;;;0.40;99.90;;;;;;4988387;28;20232;-86
2023/01/20 06:00:38;;;;;;;23.10;12.10;;;0.40;99.90;;;;;;4995296;28;20175;-82
2023/01/20 06:03:04;;;;;;;25.40;12.87;;;0.40;99.90;;;;;;4994175;28;20210;-85
2023/01/20 06:05:30;;;;;;;25.03;13.17;;;0.40;99.90;;;;;;4995618;28;20172;-85
2023/01/20 06:07:57;;;;;;;29.33;14.63;;;0.40;99.90;;;;;;4988315;28;20418;-83
2023/01/20 06:10:29;;;;;;;21.73;11.90;;;0.40;99.90;;;;;;4988331;28;20423;-84
2023/01/20 06:12:55;;;;;;;22.50;13.70;;;0.40;99.90;;;;;;4972630;28;20427;-83
2023/01/20 06:15:22;;;;;;;22.43;9.43;;;0.40;99.90;;;;;;4991886;28;20425;-84
2023/01/20 06:17:49;;;;;;;24.03;11.37;;;0.40;99.90;;;;;;4989592;28;20432;-84
2023/01/20 06:20:15;;;;;;;31.70;13.13;;;0.50;99.90;;;;;;4993256;28;20413;-84
2023/01/20 06:22:53;;;;;;;26.73;12.40;;;0.50;99.90;;;;;;4987372;28;20434;-86
2023/01/20 06:25:19;;;;;;;26.60;12.00;;;0.50;99.90;;;;;;4984261;28;20470;-93
2023/01/20 06:27:44;;;;;;;25.87;11.97;;;0.50;99.90;;;;;;4980304;28;20574;-86
2023/01/20 06:30:10;;;;;;;23.10;12.70;;;0.50;99.90;;;;;;4988014;28;20170;-85
2023/01/20 06:32:36;;;;;;;17.67;10.50;;;0.50;99.90;;;;;;4969115;28;20187;-94
2023/01/20 06:35:01;;;;;;;24.40;11.87;;;0.50;99.90;;;;;;4983786;28;20207;-94
2023/01/20 06:37:27;;;;;;;25.77;11.97;;;0.50;99.90;;;;;;4983127;28;20184;-86
2023/01/20 06:39:52;;;;;;;26.63;13.00;;;0.50;99.90;;;;;;4979185;28;20180;-95
2023/01/20 06:42:18;;;;;;;26.87;13.97;;;0.50;99.90;;;;;;4979280;28;20185;-91
2023/01/20 06:44:48;;;;;;;24.87;12.00;;;0.50;99.90;;;;;;4984551;28;20186;-85
2023/01/20 06:47:13;;;;;;;26.17;12.07;;;0.50;99.90;;;;;;4966609;28;20223;-95
2023/01/20 06:49:39;;;;;;;26.63;12.27;;;0.50;99.90;;;;;;4992475;28;20401;-86
2023/01/20 06:52:05;;;;;;;28.10;14.70;;;0.60;99.90;;;;;;4991436;28;20156;-93
2023/01/20 06:54:30;;;;;;;28.63;14.57;;;0.60;99.90;;;;;;4984261;28;20260;-91
2023/01/20 06:56:56;;;;;;;20.37;11.30;;;0.60;99.90;;;;;;4978874;28;20481;-95
2023/01/20 06:59:21;;;;;;;35.27;15.43;;;0.60;99.90;;;;;;4978962;28;20179;-89
2023/01/20 07:01:47;;;;;;;28.80;12.83;;;0.60;99.90;;;;;;4987261;28;20173;-84
2023/01/20 07:04:13;;;;;;;28.07;12.90;;;0.60;99.90;;;;;;4987346;28;20167;-84
2023/01/20 07:06:39;;;;;;;27.47;12.90;;;0.60;99.90;;;;;;4993022;28;20200;-86
2023/01/20 07:09:07;;;;;;;26.17;11.73;;;0.50;99.90;;;;;;4992743;28;20427;-85
2023/01/20 07:11:34;;;;;;;22.00;10.90;;;0.60;99.90;;;;;;4986687;28;20436;-84
2023/01/20 07:14:02;;;;;;;24.50;11.60;;;0.60;99.90;;;;;;4993001;28;20437;-84
2023/01/20 07:16:28;;;;;;;17.93;9.90;;;0.60;99.90;;;;;;4989317;28;20515;-84
2023/01/20 07:18:53;;;;;;;21.30;10.73;;;0.60;99.90;;;;;;4985952;28;20467;-87
2023/01/20 07:21:20;;;;;;;29.00;12.30;;;0.60;99.90;;;;;;4981265;28;20178;-95
2023/01/20 07:23:46;;;;;;;21.73;11.23;;;0.60;99.90;;;;;;4977701;28;20224;-94
2023/01/20 07:26:14;;;;;;;22.13;13.13;;;0.60;99.90;;;;;;4985512;28;20872;-88
2023/01/20 07:28:40;;;;;;;26.17;13.37;;;0.60;99.90;;;;;;4975921;28;20437;-83
2023/01/20 07:31:08;;;;;;;25.93;11.47;;;0.60;99.90;;;;;;4991533;28;20424;-92
2023/01/20 07:33:34;;;;;;;21.90;11.07;;;0.70;99.90;;;;;;4982025;28;20208;-91
2023/01/20 07:36:03;;;;;;;20.80;12.17;;;0.70;99.90;;;;;;4986237;28;20412;-92
2023/01/20 07:38:29;;;;;;;23.43;11.73;;;0.60;99.90;;;;;;4976536;28;20416;-92
2023/01/20 07:40:59;;;;;;;22.13;11.10;;;0.70;99.90;;;;;;4974787;28;20444;-94
2023/01/20 07:43:24;;;;;;;22.30;10.27;;;0.70;99.90;;;;;;4974865;28;20178;-91
2023/01/20 07:45:57;;;;;;;27.97;12.47;;;0.70;99.90;;;;;;4974707;28;20506;-92
2023/01/20 07:48:24;;;;;;;24.80;13.90;;;0.70;99.90;;;;;;4975933;28;20192;-94
2023/01/20 07:51:01;;;;;;;23.73;11.03;;;0.70;99.90;;;;;;4976146;28;20503;-92
2023/01/20 07:53:36;;;;;;;20.27;10.97;;;0.70;99.90;;;;;;4975881;28;20428;-94
2023/01/20 07:56:03;;;;;;;24.10;12.07;;;0.70;99.90;;;;;;4975836;28;20441;-93
2023/01/20 07:58:28;;;;;;;22.20;11.50;;;0.70;99.90;;;;;;4975989;28;20425;-94
2023/01/20 08:00:54;;;;;;;21.80;10.70;;;0.70;99.90;;;;;;4975382;28;20409;-94
2023/01/20 08:03:20;;;;;;;27.40;11.13;;;0.80;99.90;;;;;;4978551;28;20629;-93
2023/01/20 08:05:46;;;;;;;19.47;10.27;;;0.80;99.90;;;;;;4979266;28;20246;-94
2023/01/20 08:08:11;;;;;;;19.60;9.90;;;0.80;99.90;;;;;;4976629;28;20169;-93
2023/01/20 08:10:37;;;;;;;25.53;11.97;;;0.80;99.90;;;;;;4980363;28;20500;-85
2023/01/20 08:13:03;;;;;;;24.83;13.10;;;0.80;99.90;;;;;;4983874;28;20172;-84
2023/01/20 08:15:28;;;;;;;27.30;10.43;;;0.90;99.90;;;;;;4980983;28;20365;-93
2023/01/20 08:17:54;;;;;;;28.30;10.77;;;0.90;99.90;;;;;;4985479;28;20176;-87
2023/01/20 08:20:20;;;;;;;20.57;11.00;;;0.90;99.90;;;;;;4981439;28;20585;-88
2023/01/20 08:22:46;;;;;;;25.20;13.17;;;0.90;99.90;;;;;;4976202;28;20483;-82
2023/01/20 08:25:17;;;;;;;21.27;12.70;;;0.90;99.90;;;;;;4976175;28;20177;-94
2023/01/20 08:27:43;;;;;;;22.53;11.83;;;1.00;99.90;;;;;;4974648;28;20217;-93
2023/01/20 08:30:09;;;;;;;24.77;10.53;;;0.90;99.90;;;;;;4978244;28;20417;-90
2023/01/20 08:32:34;;;;;;;19.80;10.00;;;1.00;99.90;;;;;;4975717;28;20634;-84
2023/01/20 08:35:00;;;;;;;23.43;11.30;;;1.00;99.90;;;;;;4977578;28;20412;-84
2023/01/20 08:37:25;;;;;;;32.20;11.90;;;1.00;99.90;;;;;;4977880;28;20219;-88
2023/01/20 08:39:51;;;;;;;20.37;11.57;;;1.10;99.90;;;;;;4980928;28;20178;-86
2023/01/20 08:42:16;;;;;;;18.00;9.93;;;1.00;99.90;;;;;;4983866;28;20178;-88
2023/01/20 08:44:42;;;;;;;23.97;9.70;;;1.10;99.90;;;;;;4978403;28;20183;-93
2023/01/20 08:47:07;;;;;;;25.07;10.50;;;1.10;99.90;;;;;;4973982;28;20218;-91
2023/01/20 08:49:33;;;;;;;15.47;9.83;;;1.10;99.90;;;;;;4974261;28;20184;-92
2023/01/20 08:51:58;;;;;;;28.07;13.63;;;1.20;99.90;;;;;;4977328;28;20224;-93
2023/01/20 08:54:24;;;;;;;22.67;11.77;;;1.20;99.90;;;;;;4981548;28;20531;-93
2023/01/20 08:56:50;;;;;;;24.53;10.67;;;1.30;99.90;;;;;;4994912;28;20182;-92
2023/01/20 08:59:21;;;;;;;19.87;10.97;;;1.30;99.90;;;;;;4977626;28;20180;-92
2023/01/20 09:01:55;;;;;;;20.07;11.50;;;1.30;99.90;;;;;;4961815;28;20425;-82
2023/01/20 09:04:20;;;;;;;17.87;11.27;;;1.30;99.90;;;;;;4977908;28;20828;-84
2023/01/20 09:06:49;;;;;;;20.60;11.87;;;1.30;99.90;;;;;;4978096;28;20470;-83
2023/01/20 09:09:16;;;;;;;20.50;10.40;;;1.30;99.90;;;;;;4977882;28;20175;-87
2023/01/20 09:11:51;;;;;;;23.60;12.90;;;1.30;99.90;;;;;;4977964;28;20767;-85
2023/01/20 09:14:21;;;;;;;22.57;11.67;;;1.30;99.90;;;;;;4977480;28;20427;-88
2023/01/20 09:16:47;;;;;;;22.23;12.53;;;1.30;99.90;;;;;;4935064;28;20774;-86
2023/01/20 09:19:13;;;;;;;24.33;11.40;;;1.30;99.90;;;;;;4985236;28;20430;-85
2023/01/20 09:21:41;;;;;;;23.43;12.23;;;1.30;99.90;;;;;;4957933;28;20431;-84
2023/01/20 09:24:07;;;;;;;25.83;10.67;;;1.30;99.90;;;;;;4964779;29;20355;-85
2023/01/20 09:26:40;;;;;;;24.53;11.60;;;1.30;99.90;;;;;;4949833;29;20477;-95
2023/01/20 09:29:11;;;;;;;20.60;9.67;;;1.40;99.90;;;;;;4966433;29;20712;-84
2023/01/20 09:31:39;;;;;;;20.87;10.63;;;1.50;99.90;;;;;;4966171;29;20495;-87
2023/01/20 09:34:05;;;;;;;18.67;10.17;;;1.40;99.90;;;;;;4954771;29;20428;-93
2023/01/20 09:36:30;;;;;;;19.07;9.90;;;1.40;99.90;;;;;;5009725;23;20496;-85
2023/01/20 09:44:49;;;;;;;23.97;12.30;;;1.50;99.90;;;;;;5031139;28;20429;-94
2023/01/20 09:47:28;;;;;;;17.43;9.07;;;1.50;99.90;;;;;;4998997;28;20836;-93
2023/01/20 09:53:33;;;;;;;20.37;11.40;;;1.60;99.90;;;;;;5016196;28;20440;-94
2023/01/20 09:56:03;;;;;;;19.60;9.73;;;1.60;99.90;;;;;;5014160;28;21003;-81
2023/01/20 09:58:31;;;;;;;17.30;10.07;;;1.60;99.90;;;;;;4997264;28;20422;-79
2023/01/20 10:01:19;;;;;;;18.50;11.40;;;1.70;99.90;;;;;;5014679;28;20491;-80
2023/01/20 10:04:10;;;;;;;22.17;11.57;;;1.60;99.90;;;;;;5014088;28;20450;-80
2023/01/20 10:06:36;;;;;;;21.67;9.87;;;1.60;99.90;;;;;;4997363;28;20981;-80
2023/01/20 10:09:08;;;;;;;22.20;11.97;;;1.60;99.90;;;;;;5014911;28;20425;-80
2023/01/20 10:11:42;;;;;;;17.90;10.13;;;1.80;99.90;;;;;;4997582;28;20268;-80
2023/01/20 10:14:22;;;;;;;25.77;11.00;;;1.90;99.90;;;;;;5014898;28;20436;-80
2023/01/20 10:17:11;;;;;;;20.33;11.40;;;1.90;99.90;;;;;;4953576;28;20735;-79
2023/01/20 10:19:44;;;;;;;17.20;10.30;;;2.00;99.90;;;;;;5011896;28;20402;-82
2023/01/20 10:22:15;;;;;;;21.70;10.43;;;2.00;99.90;;;;;;4996871;28;20453;-80
2023/01/20 10:24:51;;;;;;;20.80;9.63;;;2.00;99.90;;;;;;5012143;28;20486;-80
2023/01/20 10:27:17;;;;;;;18.93;9.20;;;1.90;99.90;;;;;;4995030;28;20517;-80
2023/01/20 10:29:50;;;;;;;19.27;9.50;;;2.00;99.90;;;;;;4995078;28;20426;-86
2023/01/20 10:32:22;;;;;;;17.27;9.63;;;2.20;99.90;;;;;;4977099;28;20496;-83
2023/01/20 10:34:52;;;;;;;21.87;9.67;;;2.10;99.90;;;;;;4994810;28;20419;-83
2023/01/20 10:37:18;;;;;;;19.60;10.50;;;2.00;99.90;;;;;;4994709;28;20474;-81
2023/01/20 10:39:52;;;;;;;16.53;8.70;;;2.00;99.90;;;;;;4994852;28;20933;-81
2023/01/20 10:42:18;;;;;;;18.40;9.47;;;2.10;99.90;;;;;;4994871;28;20426;-81
2023/01/20 10:44:46;;;;;;;16.60;8.80;;;2.10;99.90;;;;;;4994749;28;20426;-81
2023/01/20 10:47:50;;;;;;;17.80;8.90;;;2.10;99.90;;;;;;4994191;28;20472;-81
2023/01/20 10:50:34;;;;;;;16.07;9.23;;;2.20;99.90;;;;;;4994731;28;20468;-81
2023/01/20 10:53:09;;;;;;;19.70;8.90;;;2.30;99.90;;;;;;4977203;28;20537;-82
2023/01/20 10:55:49;;;;;;;15.30;8.37;;;2.30;91.50;;;;;;4977178;28;20446;-82
2023/01/20 10:58:26;;;;;;;17.03;10.23;;;2.40;1.00;;;;;;4994374;28;20814;-82
2023/01/20 11:00:53;;;;;;;16.53;7.90;;;2.60;1.00;;;;;;4976728;28;20837;-83
2023/01/20 11:03:21;;;;;;;14.77;7.23;;;2.80;1.00;;;;;;4994264;28;20425;-83
2023/01/20 11:05:50;;;;;;;12.83;7.50;;;3.00;1.00;;;;;;4994368;28;20760;-82
2023/01/20 11:08:22;;;;;;;19.87;9.23;;;4.20;99.90;;;;;;4977050;28;20522;-81
2023/01/20 11:10:55;;;;;;;14.97;7.90;;;4.60;99.90;;;;;;4994439;28;20416;-81
2023/01/20 11:13:21;;;;;;;15.40;7.67;;;6.10;99.50;;;;;;4976931;28;20434;-81
2023/01/20 11:15:59;;;;;;;12.93;8.23;;;7.40;1.00;;;;;;4976205;28;20972;-81
2023/01/20 11:18:30;;;;;;;16.03;8.70;;;7.30;1.00;;;;;;4976788;28;20203;-81
2023/01/20 11:21:13;;;;;;;13.10;7.50;;;8.10;99.90;;;;;;4976832;28;20417;-81
2023/01/20 11:23:47;;;;;;;15.73;7.57;;;7.80;99.90;;;;;;4992861;28;20428;-82
2023/01/20 11:26:29;;;;;;;14.23;8.77;;;8.00;99.90;;;;;;4994089;28;20504;-81
2023/01/20 11:29:00;;;;;;;11.40;6.87;;;8.60;99.90;;;;;;4976734;28;20456;-81
2023/01/20 11:31:40;;;;;;;14.77;7.83;;;8.80;99.90;;;;;;4993672;28;20849;-81
2023/01/20 11:34:24;;;;;;;12.83;6.97;;;7.90;99.90;;;;;;4994021;28;20443;-81
2023/01/20 11:37:20;;;;;;;15.77;8.33;;;6.80;99.90;;;;;;4993770;28;20460;-81
2023/01/20 11:39:49;;;;;;;12.77;8.33;;;6.70;1.00;;;;;;4994073;28;20416;-81
2023/01/20 11:42:16;;;;;;;10.87;7.00;;;8.60;99.90;;;;;;4993894;28;20431;-81
2023/01/20 11:44:43;;;;;;;12.03;8.27;;;8.30;99.90;;;;;;4993920;28;20404;-81
2023/01/20 11:47:22;;;;;;;12.07;7.50;;;8.80;99.90;;;;;;4993337;28;20566;-82
2023/01/20 11:50:03;;;;;;;14.17;8.63;;;8.20;99.90;;;;;;4992822;28;20938;-82
2023/01/20 11:52:41;;;;;;;13.13;7.40;;;8.80;99.90;;;;;;4993829;28;20916;-83
2023/01/20 11:55:20;;;;;;;11.90;8.00;;;9.00;99.90;;;;;;4993824;28;20440;-83
2023/01/20 11:57:51;;;;;;;11.77;7.50;;;9.50;99.90;;;;;;4992567;28;20413;-83
2023/01/20 12:00:17;;;;;;;15.20;9.80;;;;;;;;;;4992253;28;20429;-80
2023/01/20 12:02:44;;;;;;;14.50;8.33;;;;;;;;;;4993689;28;20899;-84
2023/01/20 12:05:25;;;;;;;12.20;8.70;;;;;;;;;;4993620;28;20417;-81
2023/01/20 12:07:52;;;;;;;9.97;7.17;;;;;;;;;;4993513;28;20460;-83
2023/01/20 12:10:23;;;;;;;12.50;7.93;;;;;;;;;;4993529;28;20497;-82
2023/01/20 12:12:55;;;;;;;13.83;7.80;;;;;;;;;;4976157;28;20494;-84
2023/01/20 12:15:26;;;;;;;11.70;7.20;;;;;;;;;;4993087;28;20421;-82
2023/01/20 12:18:07;;;;;;;10.93;6.33;;;;;;;;;;4993499;28;20877;-82
2023/01/20 12:20:39;;;;;;;15.30;8.87;;;;;;;;;;4993466;28;20416;-81
2023/01/20 12:23:05;;;;;;;13.23;8.23;;;;;;;;;;4993585;28;20478;-83
2023/01/20 12:25:34;;;;;;;11.53;7.23;;;;;;;;;;4993427;28;20422;-83
2023/01/20 12:28:03;;;;;;;15.37;7.50;;;;;;;;;;4996481;28;20292;-82
2023/01/20 12:30:32;;;;;;;13.97;6.70;;;;;;;;;;4996967;28;20405;-83
2023/01/20 12:33:02;;;;;;;11.37;6.63;;;;;;;;;;4979897;28;20794;-81
2023/01/20 12:35:30;;;;;;;11.30;6.90;;;;;;;;;;4997127;28;20415;-83
2023/01/20 12:38:00;;;;;;;12.93;7.47;;;;;;;;;;4997210;28;20525;-82
2023/01/20 12:40:39;;;;;;;13.77;7.83;;;;;;;;;;4997079;28;20410;-81
2023/01/20 12:43:34;;;;;;;12.60;7.67;;;;;;;;;;4997192;28;20812;-80
2023/01/20 12:46:19;;;;;;;13.37;7.00;;;;;;;;;;4943967;28;20603;-82
2023/01/20 12:48:55;;;;;;;9.60;6.40;;;;;;;;;;4997092;28;20764;-81
2023/01/20 12:51:40;;;;;;;11.70;7.30;;;;;;;;;;4979467;28;21000;-81
2023/01/20 12:54:15;;;;;;;13.50;7.63;;;;;;;;;;4996858;28;20408;-81
2023/01/20 12:57:01;;;;;;;13.20;7.50;;;;;;;;;;4996816;28;20453;-81
2023/01/20 12:59:46;;;;;;;9.23;6.47;;;;;;;;;;4979244;28;20447;-81
2023/01/20 13:02:11;;;;;;;9.13;6.57;;;;;;;;;;4996825;28;20408;-80
2023/01/20 13:04:43;;;;;;;13.97;6.77;;;;;;;;;;4996644;28;20406;-81
2023/01/20 13:07:12;;;;;;;10.77;6.60;;;;;;;;;;4996614;28;20964;-82
2023/01/20 13:09:56;;;;;;;11.83;6.53;;;;;;;;;;4979315;28;20427;-80
2023/01/20 13:12:25;;;;;;;11.87;7.30;;;;;;;;;;4996774;28;20438;-80
2023/01/20 13:15:10;;;;;;;17.00;8.90;;;;;;;;;;4978900;28;20429;-80